sensor_id;sensor_type;location;lat;lon;timestamp;pressure;altitude;pressure_sealevel;temperature;humidity
79144;BME280;68551;47.484;19.092;2023-04-24T00:00:12;99634.94;;;15.48;43.78
79144;BME280;68551;47.484;19.092;2023-04-24T00:03:16;99638.53;;;15.44;45.08
79144;BME280;68551;47.484;19.092;2023-04-24T00:06:23;99624.50;;;15.35;45.25
79144;BME280;68551;47.484;19.092;2023-04-24T00:09:26;99624.50;;;15.35;45.50
79144;BME280;68551;47.484;19.092;2023-04-24T00:12:28;99630.00;;;15.35;44.90
79144;BME280;68551;47.484;19.092;2023-04-24T00:15:32;99633.59;;;15.41;45.12
79144;BME280;68551;47.484;19.092;2023-04-24T00:18:35;99620.97;;;15.30;45.76
79144;BME280;68551;47.484;19.092;2023-04-24T00:21:37;99636.59;;;15.39;45.04
79144;BME280;68551;47.484;19.092;2023-04-24T00:24:42;99636.06;;;15.42;45.66
79144;BME280;68551;47.484;19.092;2023-04-24T00:27:46;99643.44;;;15.47;45.49
79144;BME280;68551;47.484;19.092;2023-04-24T00:30:49;99638.53;;;15.44;45.62
79144;BME280;68551;47.484;19.092;2023-04-24T00:33:51;99639.31;;;15.44;45.96
79144;BME280;68551;47.484;19.092;2023-04-24T00:36:56;99637.72;;;15.43;45.71
79144;BME280;68551;47.484;19.092;2023-04-24T00:39:58;99625.88;;;15.48;44.79
79144;BME280;68551;47.484;19.092;2023-04-24T00:43:06;99621.78;;;15.40;45.19
79144;BME280;68551;47.484;19.092;2023-04-24T00:46:12;99617.91;;;15.31;44.94
79144;BME280;68551;47.484;19.092;2023-04-24T00:49:20;99614.66;;;15.29;45.14
79144;BME280;68551;47.484;19.092;2023-04-24T00:52:28;99615.97;;;15.16;45.38
79144;BME280;68551;47.484;19.092;2023-04-24T00:55:32;99630.53;;;15.12;45.93
79144;BME280;68551;47.484;19.092;2023-04-24T00:58:35;99625.06;;;15.12;45.75
79144;BME280;68551;47.484;19.092;2023-04-24T01:01:43;99620.63;;;15.16;46.12
79144;BME280;68551;47.484;19.092;2023-04-24T01:04:50;99626.97;;;15.11;45.64
79144;BME280;68551;47.484;19.092;2023-04-24T01:07:55;99616.00;;;15.01;46.52
79144;BME280;68551;47.484;19.092;2023-04-24T01:11:00;99625.59;;;14.99;46.31
79144;BME280;68551;47.484;19.092;2023-04-24T01:14:05;99627.47;;;14.93;46.43
79144;BME280;68551;47.484;19.092;2023-04-24T01:17:10;99616.22;;;14.84;46.97
79144;BME280;68551;47.484;19.092;2023-04-24T01:20:13;99623.38;;;14.85;46.93
79144;BME280;68551;47.484;19.092;2023-04-24T01:23:19;99631.00;;;14.78;47.98
79144;BME280;68551;47.484;19.092;2023-04-24T01:26:22;99616.72;;;14.76;46.99
79144;BME280;68551;47.484;19.092;2023-04-24T01:29:27;99607.41;;;14.67;47.51
79144;BME280;68551;47.484;19.092;2023-04-24T01:32:32;99602.94;;;14.41;48.22
79144;BME280;68551;47.484;19.092;2023-04-24T01:35:39;99608.41;;;14.41;48.18
79144;BME280;68551;47.484;19.092;2023-04-24T01:38:42;99608.16;;;14.47;48.73
79144;BME280;68551;47.484;19.092;2023-04-24T01:41:44;99600.75;;;14.43;48.82
79144;BME280;68551;47.484;19.092;2023-04-24T01:44:47;99594.34;;;14.32;48.76
79144;BME280;68551;47.484;19.092;2023-04-24T01:47:49;99594.56;;;14.20;48.97
79144;BME280;68551;47.484;19.092;2023-04-24T01:50:52;99596.50;;;14.20;50.05
79144;BME280;68551;47.484;19.092;2023-04-24T01:53:54;99586.41;;;14.31;49.81
79144;BME280;68551;47.484;19.092;2023-04-24T01:56:59;99573.91;;;13.93;51.26
79144;BME280;68551;47.484;19.092;2023-04-24T02:00:07;99552.97;;;13.71;53.21
79144;BME280;68551;47.484;19.092;2023-04-24T02:03:16;99536.38;;;13.41;56.12
79144;BME280;68551;47.484;19.092;2023-04-24T02:06:18;99543.69;;;13.30;57.43
79144;BME280;68551;47.484;19.092;2023-04-24T02:09:20;99547.63;;;13.49;58.20
79144;BME280;68551;47.484;19.092;2023-04-24T02:12:23;99534.28;;;13.21;59.92
79144;BME280;68551;47.484;19.092;2023-04-24T02:15:28;99534.91;;;13.28;59.29
79144;BME280;68551;47.484;19.092;2023-04-24T02:18:31;99529.81;;;13.42;59.15
79144;BME280;68551;47.484;19.092;2023-04-24T02:21:35;99524.00;;;13.33;59.44
79144;BME280;68551;47.484;19.092;2023-04-24T02:24:43;99528.00;;;13.58;60.23
79144;BME280;68551;47.484;19.092;2023-04-24T02:27:52;99528.03;;;13.68;59.91
79144;BME280;68551;47.484;19.092;2023-04-24T02:30:54;99536.00;;;13.69;59.95
79144;BME280;68551;47.484;19.092;2023-04-24T02:34:01;99524.00;;;13.75;62.68
79144;BME280;68551;47.484;19.092;2023-04-24T02:37:04;99517.69;;;13.80;58.62
79144;BME280;68551;47.484;19.092;2023-04-24T02:40:07;99521.44;;;13.64;58.65
79144;BME280;68551;47.484;19.092;2023-04-24T02:43:15;99519.81;;;13.68;59.16
79144;BME280;68551;47.484;19.092;2023-04-24T02:46:17;99514.38;;;13.73;59.90
79144;BME280;68551;47.484;19.092;2023-04-24T02:49:24;99517.97;;;13.78;60.73
79144;BME280;68551;47.484;19.092;2023-04-24T02:52:31;99517.72;;;13.85;61.38
79144;BME280;68551;47.484;19.092;2023-04-24T02:55:33;99510.00;;;13.72;62.16
79144;BME280;68551;47.484;19.092;2023-04-24T02:58:35;99501.25;;;13.75;63.09
79144;BME280;68551;47.484;19.092;2023-04-24T03:01:37;99494.41;;;13.77;65.23
79144;BME280;68551;47.484;19.092;2023-04-24T03:04:42;99504.34;;;13.94;64.69
79144;BME280;68551;47.484;19.092;2023-04-24T03:07:45;99510.63;;;13.94;63.54
79144;BME280;68551;47.484;19.092;2023-04-24T03:10:47;99509.25;;;13.92;61.40
79144;BME280;68551;47.484;19.092;2023-04-24T03:13:49;99502.41;;;13.94;63.03
79144;BME280;68551;47.484;19.092;2023-04-24T03:16:52;99512.28;;;13.95;62.43
79144;BME280;68551;47.484;19.092;2023-04-24T03:19:56;99507.06;;;13.94;61.83
79144;BME280;68551;47.484;19.092;2023-04-24T03:23:01;99517.19;;;13.88;63.04
79144;BME280;68551;47.484;19.092;2023-04-24T03:26:03;99518.28;;;13.92;64.91
79144;BME280;68551;47.484;19.092;2023-04-24T03:29:12;99516.13;;;13.94;65.44
79144;BME280;68551;47.484;19.092;2023-04-24T03:32:23;99507.31;;;13.82;63.56
79144;BME280;68551;47.484;19.092;2023-04-24T03:35:31;99511.66;;;13.78;63.21
79144;BME280;68551;47.484;19.092;2023-04-24T03:38:36;99503.44;;;13.78;61.16
79144;BME280;68551;47.484;19.092;2023-04-24T03:42:14;99502.84;;;13.66;62.20
79144;BME280;68551;47.484;19.092;2023-04-24T03:45:27;99499.06;;;13.77;62.00
79144;BME280;68551;47.484;19.092;2023-04-24T03:48:32;99487.00;;;13.73;63.53
79144;BME280;68551;47.484;19.092;2023-04-24T03:51:37;99511.25;;;13.54;63.40
79144;BME280;68551;47.484;19.092;2023-04-24T03:54:52;99513.78;;;13.61;63.89
79144;BME280;68551;47.484;19.092;2023-04-24T03:57:54;99505.31;;;13.67;63.64
79144;BME280;68551;47.484;19.092;2023-04-24T04:00:57;99496.00;;;13.68;64.47
79144;BME280;68551;47.484;19.092;2023-04-24T04:04:29;99492.00;;;13.86;62.60
79144;BME280;68551;47.484;19.092;2023-04-24T04:07:31;99496.31;;;13.72;63.53
79144;BME280;68551;47.484;19.092;2023-04-24T04:10:38;99490.25;;;13.65;63.25
79144;BME280;68551;47.484;19.092;2023-04-24T04:13:43;99493.00;;;13.70;64.66
79144;BME280;68551;47.484;19.092;2023-04-24T04:16:45;99498.72;;;13.63;65.25
79144;BME280;68551;47.484;19.092;2023-04-24T04:19:50;99487.19;;;13.56;64.81
79144;BME280;68551;47.484;19.092;2023-04-24T04:22:53;99495.06;;;13.47;65.56
79144;BME280;68551;47.484;19.092;2023-04-24T04:26:04;99487.97;;;13.46;64.69
79144;BME280;68551;47.484;19.092;2023-04-24T04:29:29;99499.53;;;13.64;63.98
79144;BME280;68551;47.484;19.092;2023-04-24T04:32:35;99512.22;;;13.80;65.93
79144;BME280;68551;47.484;19.092;2023-04-24T04:35:41;99518.56;;;13.91;64.78
79144;BME280;68551;47.484;19.092;2023-04-24T04:38:46;99505.56;;;13.61;63.37
79144;BME280;68551;47.484;19.092;2023-04-24T04:42:09;99499.50;;;13.54;64.57
79144;BME280;68551;47.484;19.092;2023-04-24T04:45:16;99498.88;;;13.41;65.14
79144;BME280;68551;47.484;19.092;2023-04-24T04:48:44;99498.34;;;13.44;64.87
79144;BME280;68551;47.484;19.092;2023-04-24T04:51:49;99484.72;;;13.55;64.34
79144;BME280;68551;47.484;19.092;2023-04-24T04:54:55;99493.81;;;13.65;63.35
79144;BME280;68551;47.484;19.092;2023-04-24T04:58:04;99483.94;;;13.64;63.92
79144;BME280;68551;47.484;19.092;2023-04-24T05:01:06;99475.47;;;13.66;64.13
79144;BME280;68551;47.484;19.092;2023-04-24T05:04:18;99484.78;;;13.70;64.08
79144;BME280;68551;47.484;19.092;2023-04-24T05:07:24;99480.94;;;13.66;64.13
79144;BME280;68551;47.484;19.092;2023-04-24T05:10:31;99474.41;;;13.72;63.98
79144;BME280;68551;47.484;19.092;2023-04-24T05:13:36;99482.13;;;13.85;63.57
79144;BME280;68551;47.484;19.092;2023-04-24T05:16:50;99488.19;;;13.97;62.76
79144;BME280;68551;47.484;19.092;2023-04-24T05:20:01;99477.81;;;14.04;62.66
79144;BME280;68551;47.484;19.092;2023-04-24T05:23:07;99469.59;;;14.09;62.35
79144;BME280;68551;47.484;19.092;2023-04-24T05:26:13;99477.03;;;14.19;62.20
79144;BME280;68551;47.484;19.092;2023-04-24T05:29:18;99474.03;;;14.15;62.05
79144;BME280;68551;47.484;19.092;2023-04-24T05:32:25;99481.69;;;14.24;61.36
79144;BME280;68551;47.484;19.092;2023-04-24T05:35:30;99481.19;;;14.37;61.65
79144;BME280;68551;47.484;19.092;2023-04-24T05:38:35;99487.53;;;14.42;61.06
79144;BME280;68551;47.484;19.092;2023-04-24T05:41:37;99485.06;;;14.46;60.50
79144;BME280;68551;47.484;19.092;2023-04-24T05:44:40;99497.69;;;14.52;61.80
79144;BME280;68551;47.484;19.092;2023-04-24T05:47:47;99504.84;;;14.63;59.65
79144;BME280;68551;47.484;19.092;2023-04-24T05:50:49;99501.00;;;14.69;59.94
79144;BME280;68551;47.484;19.092;2023-04-24T05:53:52;99492.78;;;14.64;60.33
79144;BME280;68551;47.484;19.092;2023-04-24T05:56:55;99503.44;;;14.61;61.04
79144;BME280;68551;47.484;19.092;2023-04-24T06:00:09;99484.53;;;14.49;60.57
79144;BME280;68551;47.484;19.092;2023-04-24T06:03:24;99510.31;;;14.53;61.12
79144;BME280;68551;47.484;19.092;2023-04-24T06:06:27;99496.84;;;14.46;61.00
79144;BME280;68551;47.484;19.092;2023-04-24T06:09:32;99490.28;;;14.52;60.93
79144;BME280;68551;47.484;19.092;2023-04-24T06:12:37;99498.53;;;14.58;61.03
79144;BME280;68551;47.484;19.092;2023-04-24T06:15:47;99509.50;;;14.58;61.43
79144;BME280;68551;47.484;19.092;2023-04-24T06:19:00;99494.41;;;14.55;60.45
79144;BME280;68551;47.484;19.092;2023-04-24T06:22:04;99510.34;;;14.88;59.63
79144;BME280;68551;47.484;19.092;2023-04-24T06:25:07;99514.72;;;15.05;58.83
79144;BME280;68551;47.484;19.092;2023-04-24T06:28:09;99491.16;;;14.94;59.62
79144;BME280;68551;47.484;19.092;2023-04-24T06:31:16;99505.13;;;14.77;60.61
79144;BME280;68551;47.484;19.092;2023-04-24T06:34:21;99501.00;;;14.69;60.48
79144;BME280;68551;47.484;19.092;2023-04-24T06:37:26;99508.69;;;14.67;61.59
79144;BME280;68551;47.484;19.092;2023-04-24T06:40:30;99508.16;;;14.70;62.21
79144;BME280;68551;47.484;19.092;2023-04-24T06:43:34;99499.63;;;14.77;62.89
79144;BME280;68551;47.484;19.092;2023-04-24T06:46:38;99509.22;;;14.59;63.29
79144;BME280;68551;47.484;19.092;2023-04-24T06:49:43;99500.44;;;14.42;64.09
79144;BME280;68551;47.484;19.092;2023-04-24T06:52:45;99498.22;;;14.49;63.95
79144;BME280;68551;47.484;19.092;2023-04-24T06:55:50;99501.00;;;14.59;64.26
79144;BME280;68551;47.484;19.092;2023-04-24T06:59:00;99495.16;;;14.35;64.64
79144;BME280;68551;47.484;19.092;2023-04-24T07:02:02;99492.13;;;14.16;64.74
79144;BME280;68551;47.484;19.092;2023-04-24T07:05:07;99480.59;;;14.19;65.63
79144;BME280;68551;47.484;19.092;2023-04-24T07:08:12;99492.13;;;14.27;65.69
79144;BME280;68551;47.484;19.092;2023-04-24T07:11:15;99492.19;;;14.42;64.39
79144;BME280;68551;47.484;19.092;2023-04-24T07:14:23;99493.25;;;14.36;65.25
79144;BME280;68551;47.484;19.092;2023-04-24T07:17:25;99482.31;;;14.46;65.07
79144;BME280;68551;47.484;19.092;2023-04-24T07:20:31;99486.16;;;14.50;64.91
79144;BME280;68551;47.484;19.092;2023-04-24T07:23:33;99492.66;;;14.24;65.95
79144;BME280;68551;47.484;19.092;2023-04-24T07:26:38;99501.72;;;14.24;66.50
79144;BME280;68551;47.484;19.092;2023-04-24T07:29:46;99502.34;;;14.41;66.59
79144;BME280;68551;47.484;19.092;2023-04-24T07:32:51;99506.50;;;14.59;66.40
79144;BME280;68551;47.484;19.092;2023-04-24T07:35:58;99477.41;;;14.53;65.38
79144;BME280;68551;47.484;19.092;2023-04-24T07:39:04;99491.66;;;14.60;65.35
79144;BME280;68551;47.484;19.092;2023-04-24T07:42:08;99482.91;;;14.58;65.33
79144;BME280;68551;47.484;19.092;2023-04-24T07:45:10;99477.97;;;14.45;66.36
79144;BME280;68551;47.484;19.092;2023-04-24T07:48:13;99485.91;;;14.67;65.86
79144;BME280;68551;47.484;19.092;2023-04-24T07:51:18;99484.03;;;14.87;65.54
79144;BME280;68551;47.484;19.092;2023-04-24T07:54:20;99490.59;;;15.07;64.65
79144;BME280;68551;47.484;19.092;2023-04-24T07:57:24;99484.25;;;15.27;65.06
79144;BME280;68551;47.484;19.092;2023-04-24T08:00:26;99491.06;;;15.49;64.23
79144;BME280;68551;47.484;19.092;2023-04-24T08:03:28;99496.19;;;15.91;62.82
79144;BME280;68551;47.484;19.092;2023-04-24T08:06:31;99496.47;;;15.90;63.02
79144;BME280;68551;47.484;19.092;2023-04-24T08:09:34;99491.25;;;15.93;62.66
79144;BME280;68551;47.484;19.092;2023-04-24T08:12:37;99488.94;;;16.65;61.07
79144;BME280;68551;47.484;19.092;2023-04-24T08:15:39;99474.09;;;17.82;56.54
79144;BME280;68551;47.484;19.092;2023-04-24T08:18:42;99470.19;;;18.06;55.13
79144;BME280;68551;47.484;19.092;2023-04-24T08:21:47;99468.06;;;18.22;54.43
79144;BME280;68551;47.484;19.092;2023-04-24T08:24:51;99482.03;;;17.59;55.02
79144;BME280;68551;47.484;19.092;2023-04-24T08:27:56;99481.97;;;17.12;56.63
79144;BME280;68551;47.484;19.092;2023-04-24T08:31:01;99483.94;;;17.06;56.85
79144;BME280;68551;47.484;19.092;2023-04-24T08:34:08;99489.56;;;16.91;56.91
79144;BME280;68551;47.484;19.092;2023-04-24T08:37:15;99485.25;;;16.80;57.87
79144;BME280;68551;47.484;19.092;2023-04-24T08:40:27;99495.28;;;16.99;57.44
79144;BME280;68551;47.484;19.092;2023-04-24T08:43:37;99484.19;;;17.67;56.49
79144;BME280;68551;47.484;19.092;2023-04-24T08:46:43;99480.13;;;18.45;53.80
79144;BME280;68551;47.484;19.092;2023-04-24T08:49:52;99480.00;;;18.36;53.02
79144;BME280;68551;47.484;19.092;2023-04-24T08:53:00;99477.47;;;17.97;54.14
79144;BME280;68551;47.484;19.092;2023-04-24T08:56:10;99478.25;;;18.64;52.96
79144;BME280;68551;47.484;19.092;2023-04-24T08:59:16;99475.41;;;19.02;51.67
79144;BME280;68551;47.484;19.092;2023-04-24T09:02:24;99471.59;;;19.30;51.29
79144;BME280;68551;47.484;19.092;2023-04-24T09:05:27;99463.84;;;19.46;50.13
79144;BME280;68551;47.484;19.092;2023-04-24T09:08:30;99469.72;;;19.72;49.56
79144;BME280;68551;47.484;19.092;2023-04-24T09:11:36;99467.56;;;19.55;49.79
79144;BME280;68551;47.484;19.092;2023-04-24T09:14:43;99463.47;;;19.53;48.79
79144;BME280;68551;47.484;19.092;2023-04-24T09:17:47;99462.22;;;19.45;48.48
79144;BME280;68551;47.484;19.092;2023-04-24T09:21:03;99452.72;;;19.51;48.44
79144;BME280;68551;47.484;19.092;2023-04-24T09:24:08;99448.41;;;19.45;47.85
79144;BME280;68551;47.484;19.092;2023-04-24T09:27:16;99448.22;;;19.09;47.65
79144;BME280;68551;47.484;19.092;2023-04-24T09:30:21;99446.28;;;19.69;47.17
79144;BME280;68551;47.484;19.092;2023-04-24T09:33:27;99454.84;;;20.09;46.07
79144;BME280;68551;47.484;19.092;2023-04-24T09:36:34;99444.78;;;20.40;45.88
79144;BME280;68551;47.484;19.092;2023-04-24T09:39:42;99438.44;;;20.26;45.40
79144;BME280;68551;47.484;19.092;2023-04-24T09:42:57;99431.19;;;20.16;45.96
79144;BME280;68551;47.484;19.092;2023-04-24T09:46:07;99424.31;;;20.14;46.39
79144;BME280;68551;47.484;19.092;2023-04-24T09:49:26;99432.38;;;20.38;46.46
79144;BME280;68551;47.484;19.092;2023-04-24T09:52:28;99409.41;;;20.73;43.64
79144;BME280;68551;47.484;19.092;2023-04-24T09:55:39;99411.69;;;21.02;44.66
79144;BME280;68551;47.484;19.092;2023-04-24T09:58:41;99410.19;;;20.96;44.79
79144;BME280;68551;47.484;19.092;2023-04-24T10:01:43;99413.09;;;20.69;44.37
79144;BME280;68551;47.484;19.092;2023-04-24T10:04:57;99412.66;;;20.53;44.28
79144;BME280;68551;47.484;19.092;2023-04-24T10:08:06;99419.38;;;20.38;44.11
79144;BME280;68551;47.484;19.092;2023-04-24T10:11:10;99420.09;;;20.30;45.90
79144;BME280;68551;47.484;19.092;2023-04-24T10:14:19;99416.69;;;20.33;44.37
79144;BME280;68551;47.484;19.092;2023-04-24T10:17:31;99421.81;;;20.26;43.50
79144;BME280;68551;47.484;19.092;2023-04-24T10:20:36;99431.69;;;20.18;44.25
79144;BME280;68551;47.484;19.092;2023-04-24T10:23:39;99422.06;;;20.16;44.85
79144;BME280;68551;47.484;19.092;2023-04-24T10:26:45;99411.25;;;19.92;44.85
79144;BME280;68551;47.484;19.092;2023-04-24T10:29:49;99409.75;;;19.72;45.57
79144;BME280;68551;47.484;19.092;2023-04-24T10:32:54;99403.59;;;19.75;45.93
79144;BME280;68551;47.484;19.092;2023-04-24T10:36:02;99420.41;;;19.79;46.93
79144;BME280;68551;47.484;19.092;2023-04-24T10:39:10;99412.81;;;19.71;47.35
79144;BME280;68551;47.484;19.092;2023-04-24T10:42:16;99417.63;;;19.65;47.45
79144;BME280;68551;47.484;19.092;2023-04-24T10:45:23;99418.13;;;19.67;48.41
79144;BME280;68551;47.484;19.092;2023-04-24T10:48:26;99407.06;;;19.67;48.31
79144;BME280;68551;47.484;19.092;2023-04-24T10:51:49;99412.72;;;19.76;49.04
79144;BME280;68551;47.484;19.092;2023-04-24T10:54:55;99397.84;;;19.86;48.21
79144;BME280;68551;47.484;19.092;2023-04-24T10:58:03;99405.91;;;19.96;46.79
79144;BME280;68551;47.484;19.092;2023-04-24T11:01:25;99405.28;;;20.12;47.37
79144;BME280;68551;47.484;19.092;2023-04-24T11:04:30;99406.91;;;20.13;46.98
79144;BME280;68551;47.484;19.092;2023-04-24T11:11:18;99393.16;;;20.22;46.29
79144;BME280;68551;47.484;19.092;2023-04-24T11:14:22;99388.47;;;20.09;46.32
79144;BME280;68551;47.484;19.092;2023-04-24T11:17:38;99388.63;;;20.26;46.72
79144;BME280;68551;47.484;19.092;2023-04-24T11:20:49;99376.34;;;20.55;46.21
79144;BME280;68551;47.484;19.092;2023-04-24T11:23:56;99380.34;;;20.62;45.96
79144;BME280;68551;47.484;19.092;2023-04-24T11:27:18;99396.22;;;20.34;46.12
79144;BME280;68551;47.484;19.092;2023-04-24T11:30:29;99377.34;;;20.36;45.97
79144;BME280;68551;47.484;19.092;2023-04-24T11:33:34;99375.47;;;20.45;46.25
79144;BME280;68551;47.484;19.092;2023-04-24T11:36:36;99375.84;;;20.52;47.85
79144;BME280;68551;47.484;19.092;2023-04-24T11:39:43;99360.81;;;20.67;46.57
79144;BME280;68551;47.484;19.092;2023-04-24T11:42:46;99378.50;;;20.58;47.82
79144;BME280;68551;47.484;19.092;2023-04-24T11:45:52;99382.81;;;20.50;46.38
79144;BME280;68551;47.484;19.092;2023-04-24T11:48:56;99377.41;;;20.67;46.55
79144;BME280;68551;47.484;19.092;2023-04-24T11:52:00;99362.16;;;20.47;46.42
79144;BME280;68551;47.484;19.092;2023-04-24T11:55:26;99352.97;;;20.61;47.68
79144;BME280;68551;47.484;19.092;2023-04-24T11:58:35;99357.41;;;20.70;47.05
79144;BME280;68551;47.484;19.092;2023-04-24T12:01:45;99350.78;;;20.35;47.34
79144;BME280;68551;47.484;19.092;2023-04-24T12:04:50;99358.19;;;20.04;47.71
79144;BME280;68551;47.484;19.092;2023-04-24T12:07:57;99351.38;;;20.10;48.84
79144;BME280;68551;47.484;19.092;2023-04-24T12:11:03;99348.63;;;20.10;49.08
79144;BME280;68551;47.484;19.092;2023-04-24T12:14:11;99342.94;;;20.29;49.00
79144;BME280;68551;47.484;19.092;2023-04-24T12:17:14;99336.56;;;20.06;49.20
79144;BME280;68551;47.484;19.092;2023-04-24T12:20:16;99348.00;;;19.77;49.00
79144;BME280;68551;47.484;19.092;2023-04-24T12:23:34;99350.06;;;19.71;47.82
79144;BME280;68551;47.484;19.092;2023-04-24T12:26:42;99336.34;;;19.66;49.64
79144;BME280;68551;47.484;19.092;2023-04-24T12:29:58;99323.75;;;19.74;50.04
79144;BME280;68551;47.484;19.092;2023-04-24T12:33:05;99323.88;;;19.55;50.51
79144;BME280;68551;47.484;19.092;2023-04-24T12:36:09;99320.78;;;19.70;50.36
79144;BME280;68551;47.484;19.092;2023-04-24T12:39:19;99318.28;;;19.82;50.55
79144;BME280;68551;47.484;19.092;2023-04-24T12:42:29;99306.84;;;19.75;50.66
79144;BME280;68551;47.484;19.092;2023-04-24T12:45:31;99298.22;;;19.91;51.27
79144;BME280;68551;47.484;19.092;2023-04-24T12:48:36;99304.59;;;19.77;51.06
79144;BME280;68551;47.484;19.092;2023-04-24T12:51:41;99302.81;;;19.81;50.52
79144;BME280;68551;47.484;19.092;2023-04-24T12:54:43;99297.28;;;19.32;52.13
79144;BME280;68551;47.484;19.092;2023-04-24T12:57:46;99295.44;;;19.13;53.15
79144;BME280;68551;47.484;19.092;2023-04-24T13:00:53;99295.22;;;18.96;54.60
79144;BME280;68551;47.484;19.092;2023-04-24T13:03:58;99294.59;;;18.72;54.76
79144;BME280;68551;47.484;19.092;2023-04-24T13:07:04;99306.63;;;18.62;55.56
79144;BME280;68551;47.484;19.092;2023-04-24T13:10:08;99292.66;;;18.54;55.48
79144;BME280;68551;47.484;19.092;2023-04-24T13:13:11;99295.38;;;18.59;56.18
79144;BME280;68551;47.484;19.092;2023-04-24T13:16:13;99290.31;;;18.66;56.12
79144;BME280;68551;47.484;19.092;2023-04-24T13:19:15;99285.38;;;18.63;56.63
79144;BME280;68551;47.484;19.092;2023-04-24T13:22:20;99284.91;;;18.56;56.54
79144;BME280;68551;47.484;19.092;2023-04-24T13:25:25;99282.19;;;18.23;58.12
79144;BME280;68551;47.484;19.092;2023-04-24T13:28:28;99284.19;;;18.18;60.14
79144;BME280;68551;47.484;19.092;2023-04-24T13:31:31;99276.94;;;18.08;61.85
79144;BME280;68551;47.484;19.092;2023-04-24T13:34:34;99268.19;;;18.01;63.58
79144;BME280;68551;47.484;19.092;2023-04-24T13:37:39;99271.66;;;17.93;62.73
79144;BME280;68551;47.484;19.092;2023-04-24T13:40:42;99278.56;;;18.09;62.22
79144;BME280;68551;47.484;19.092;2023-04-24T13:43:47;99279.22;;;18.01;63.24
79144;BME280;68551;47.484;19.092;2023-04-24T13:46:51;99286.56;;;17.92;61.03
79144;BME280;68551;47.484;19.092;2023-04-24T13:49:58;99286.63;;;17.87;61.39
79144;BME280;68551;47.484;19.092;2023-04-24T13:53:02;99296.09;;;17.81;61.75
79144;BME280;68551;47.484;19.092;2023-04-24T13:56:04;99287.53;;;17.82;61.12
79144;BME280;68551;47.484;19.092;2023-04-24T13:59:12;99283.19;;;17.76;61.85
79144;BME280;68551;47.484;19.092;2023-04-24T14:02:17;99286.09;;;17.85;60.43
79144;BME280;68551;47.484;19.092;2023-04-24T14:05:22;99300.72;;;17.66;60.18
79144;BME280;68551;47.484;19.092;2023-04-24T14:08:27;99303.56;;;17.56;61.34
79144;BME280;68551;47.484;19.092;2023-04-24T14:11:36;99310.31;;;17.45;63.51
79144;BME280;68551;47.484;19.092;2023-04-24T14:14:38;99320.25;;;17.22;64.44
79144;BME280;68551;47.484;19.092;2023-04-24T14:17:41;99316.56;;;17.08;66.13
79144;BME280;68551;47.484;19.092;2023-04-24T14:20:44;99322.06;;;17.08;66.99
79144;BME280;68551;47.484;19.092;2023-04-24T14:23:51;99314.72;;;16.98;67.85
79144;BME280;68551;47.484;19.092;2023-04-24T14:26:54;99317.00;;;16.96;68.18
79144;BME280;68551;47.484;19.092;2023-04-24T14:29:56;99325.94;;;16.83;69.74
79144;BME280;68551;47.484;19.092;2023-04-24T14:32:58;99315.50;;;16.80;70.69
79144;BME280;68551;47.484;19.092;2023-04-24T14:36:03;99308.25;;;16.89;69.60
79144;BME280;68551;47.484;19.092;2023-04-24T14:39:07;99318.63;;;16.97;70.87
79144;BME280;68551;47.484;19.092;2023-04-24T14:42:14;99317.97;;;17.06;70.43
79144;BME280;68551;47.484;19.092;2023-04-24T14:45:19;99305.19;;;16.91;70.09
79144;BME280;68551;47.484;19.092;2023-04-24T14:48:24;99322.41;;;17.01;69.00
79144;BME280;68551;47.484;19.092;2023-04-24T14:51:26;99316.03;;;17.06;69.61
79144;BME280;68551;47.484;19.092;2023-04-24T14:54:29;99311.88;;;17.09;68.75
79144;BME280;68551;47.484;19.092;2023-04-24T14:57:33;99315.78;;;17.02;68.49
79144;BME280;68551;47.484;19.092;2023-04-24T15:00:38;99321.84;;;17.05;68.13
79144;BME280;68551;47.484;19.092;2023-04-24T15:03:43;99325.94;;;17.07;67.84
79144;BME280;68551;47.484;19.092;2023-04-24T15:06:46;99317.97;;;17.06;68.64
79144;BME280;68551;47.484;19.092;2023-04-24T15:09:51;99315.25;;;17.00;69.62
79144;BME280;68551;47.484;19.092;2023-04-24T15:12:57;99304.50;;;17.04;69.16
79144;BME280;68551;47.484;19.092;2023-04-24T15:16:02;99313.81;;;17.08;69.78
79144;BME280;68551;47.484;19.092;2023-04-24T15:19:04;99294.34;;;16.99;70.31
79144;BME280;68551;47.484;19.092;2023-04-24T15:22:06;99303.72;;;16.98;67.87
79144;BME280;68551;47.484;19.092;2023-04-24T15:25:14;99311.34;;;16.83;71.46
79144;BME280;68551;47.484;19.092;2023-04-24T15:28:19;99319.41;;;16.74;72.71
79144;BME280;68551;47.484;19.092;2023-04-24T15:31:23;99313.38;;;16.72;72.10
79144;BME280;68551;47.484;19.092;2023-04-24T15:34:28;99323.50;;;16.77;72.45
79144;BME280;68551;47.484;19.092;2023-04-24T15:37:31;99316.31;;;16.81;68.00
79144;BME280;68551;47.484;19.092;2023-04-24T15:40:33;99321.00;;;16.80;69.54
79144;BME280;68551;47.484;19.092;2023-04-24T15:43:39;99321.53;;;16.82;67.98
79144;BME280;68551;47.484;19.092;2023-04-24T15:46:43;99332.84;;;16.81;71.22
79144;BME280;68551;47.484;19.092;2023-04-24T15:49:48;99329.00;;;16.43;71.28
79144;BME280;68551;47.484;19.092;2023-04-24T15:52:50;99322.44;;;16.10;70.39
79144;BME280;68551;47.484;19.092;2023-04-24T15:55:56;99324.00;;;16.16;69.17
79144;BME280;68551;47.484;19.092;2023-04-24T15:59:06;99327.22;;;15.89;69.66
79144;BME280;68551;47.484;19.092;2023-04-24T16:02:13;99329.16;;;15.88;70.63
79144;BME280;68551;47.484;19.092;2023-04-24T16:05:22;99329.31;;;16.07;69.84
79144;BME280;68551;47.484;19.092;2023-04-24T16:08:25;99322.63;;;16.18;69.47
79144;BME280;68551;47.484;19.092;2023-04-24T16:11:32;99324.25;;;16.24;69.26
79144;BME280;68551;47.484;19.092;2023-04-24T16:14:38;99317.03;;;16.28;69.92